Station 45176 - Cleveland Intake Crib Buoy, OH Image indicating link to RSS feed of recent meteorological observations for station 45176


Conditions at 45176 as of
(4:30 am EDT)
0830 GMT on 05/09/2026:
     

Click on the graph icon in the table below to see a time series plot of the last five days of that observation.

5-day plot - Wind Direction Wind Direction (WDIR): SW ( 230 deg true )
5-day plot - Wind Speed Wind Speed (WSPD): 9.7 kts
5-day plot - Wind Gust Wind Gust (GST): 13.6 kts
5-day plot - Wave Height Wave Height (WVHT): 1.3 ft
5-day plot - Dominant Wave Period Dominant Wave Period (DPD): 2 sec
5-day plot - Mean Wave Direction Mean Wave Direction (MWD): SW ( 216 deg true )
5-day plot - Atmospheric Pressure Atmospheric Pressure (PRES):29.71 in
5-day plot - Air Temperature Air Temperature (ATMP): 54.1 °F
5-day plot - Water Temperature Water Temperature (WTMP): 51.8 °F
5-day plot - Dew Point Dew Point (DEWP): 51.1 °F
5-day plot - Wind Speed at 10 Meters Wind Speed at 10 meters (WSPD10M): 11.7 kts
5-day plot - Wind Speed at 20 Meters Wind Speed at 20 meters (WSPD20M): 13.6 kts
5-day plot -  Wind Speed, Wind Gust and Atmospheric Pressure Combined plot of Wind Speed, Gust, and Air Pressure
Previous observations
TIME
(EDT)
5-day plot - Wind Direction
WDIR
 
5-day plot - Wind Speed
WSPD
kts
5-day plot - Wind Gust
GST
kts
5-day plot - Wave Height
WVHT
ft
5-day plot - Dominant Wave Period
DPD
sec
5-day plot - Average Wave Period
APD
sec
5-day plot - Mean Wave Direction
MWD
 
5-day plot - Atmospheric Pressure
PRES
in
5-day plot - Pressure Tendency
PTDY
in
5-day plot - Air Temperature
ATMP
°F
5-day plot - Water Temperature
WTMP
°F
5-day plot - Dew Point
DEWP
°F
5-day plot - Salinity
SAL
psu
5-day plot - Visibility
VIS
nmi
5-day plot - Tide (above MLLW)
TIDE
ft
2026-05-09 04:20 am SW 11.7 13.6 1.3 2- SW29.71- 54.1 51.8 51.1---
2026-05-09 04:10 am SW 9.7 15.5 1.3--SSW29.71- 54.1 51.8 51.1---
2026-05-09 04:00 am SW 11.7 15.5 1.3--SSW29.70- 54.1 51.8 51.1---
2026-05-09 03:50 am SW 9.7 13.6 1.3 2-SSW29.70- 54.1 51.8 51.1---
2026-05-09 03:40 am SW 9.7 13.6 1.3 2- SW29.70- 54.0 52.0 50.9---
2026-05-09 03:30 am SW 9.7 13.6 1.3 2- SW29.70- 54.1 52.0 50.9---
2026-05-09 03:20 am SW 11.7 17.5 1.3 2-WSW29.70- 54.1 52.0 50.9---
2026-05-09 03:10 am SW 11.7 15.5 1.3 2- SW29.71- 54.1 52.0 50.9---
2026-05-09 03:00 am SW 11.7 15.5 1.3 2-SSW29.71-0.03 54.1 52.0 50.9---
2026-05-09 02:50 am SW 11.7 15.5 1.3 2-SSW29.72- 54.0 52.0 50.7---
2026-05-09 02:40 am SW 9.7 13.6 1.3 2-SSW29.72- 54.0 52.0 50.7---
2026-05-09 02:30 am SW 11.7 13.6 1.3 2- SW29.72- 54.1 52.0 50.7---
2026-05-09 02:20 am SW 11.7 15.5 1.3 2-SSW29.72- 54.1 52.0 50.5---
2026-05-09 02:10 amSSW 13.6 15.5 1.6 2-SSW29.72- 54.3 52.0 50.5---
2026-05-09 02:00 amSSW 15.5 19.4 1.3 2-SSW29.73-0.04 54.3 52.0 50.5---
2026-05-09 01:50 amSSW 15.5 21.4 1.3--SSW29.73- 54.3 52.0 50.4---
2026-05-09 01:40 amSSW 13.6 17.5 1.3--SSW29.73- 54.3 52.0 50.4---
2026-05-09 01:20 amSSW 11.7 15.5 1.3 2-SSW29.73- 54.1 52.0 50.4---
2026-05-09 01:10 amSSW 9.7 15.5 1.3 2- SW29.73- 54.1 52.0 50.4---
2026-05-09 12:50 amSSW 13.6 19.4 1.3 2-SSW29.74- 54.1 52.0 50.4---
2026-05-09 12:40 amSSW 13.6 19.4 1.3 2- SW29.74- 54.1 52.0 50.4---
2026-05-09 12:30 amSSW 11.7 17.5 1.3 2-WSW29.74- 54.1 52.0 50.4---
2026-05-09 12:20 am SW 13.6 17.5 1.3 2-SSW29.75- 54.3 52.0 50.2---
2026-05-09 12:00 am SW 15.5 19.4 1.3 2- SW29.75-0.02 54.9 52.0 50.2---
2026-05-08 11:50 pmSSW 13.6 19.4 1.3 2- SW29.75- 54.5 52.0 50.2---
2026-05-08 11:40 pmSSW 13.6 21.4 1.3 2-SSW29.75- 54.9 52.0 50.0---
2026-05-08 11:20 pmSSW 13.6 19.4 1.3 2-SSW29.76- 54.7 52.0 50.0---
2026-05-08 11:10 pmSSW 11.7 15.5 1.3 2-SSW29.76- 54.3 52.0 50.0---
2026-05-08 11:00 pmSSW 11.7 15.5 1.3 2-SSW29.77+0.00 54.1 52.0 49.8---
2026-05-08 10:50 pmSSW 13.6 17.5 1.3--SSW29.77- 54.3 52.0 49.8---
2026-05-08 10:40 pmSSW 13.6 17.5 1.3-- S29.77- 54.5 52.0 49.8---
2026-05-08 10:30 pmSSW 11.7 13.6 1.0 2- S29.77- 54.3 52.0 49.8---
2026-05-08 10:20 pmSSW 11.7 17.5 1.0-- S29.77- 54.1 52.0 49.6---
2026-05-08 10:10 pmSSW 11.7 13.6 1.3--SSW29.77- 54.1 52.0 49.6---
2026-05-08 10:00 pmSSW 11.7 15.5 1.3 2-SSW29.77+0.01 54.0 52.0 49.6---
2026-05-08 09:50 pmSSW 11.7 15.5 1.3 2-SSW29.77- 54.0 52.0 49.6---
2026-05-08 09:40 pmSSW 11.7 15.5 1.3 2-SSW29.77- 54.0 52.2 49.8---
2026-05-08 09:30 pmSSW 11.7 15.5 1.3 2-SSW29.77- 53.8 52.2 49.8---
2026-05-08 09:20 pmSSW 13.6 15.5 1.3 2-SSW29.77- 53.8 52.2 49.6---
2026-05-08 09:10 pmSSW 13.6 19.4 1.3--SSW29.77- 53.6 52.2 49.6---
2026-05-08 09:00 pmSSW 15.5 19.4 1.3-- SW29.77+0.00 53.6 52.3 49.8---
2026-05-08 08:50 pmSSW 15.5 21.4 1.0--SSW29.76- 53.6 52.5 49.8---
2026-05-08 08:40 pmSSW 13.6 19.4 1.0--SSW29.76- 53.4 52.7 49.6---
2026-05-08 08:30 pmSSW 13.6 17.5 1.0-- SW29.76- 53.4 52.7 49.6---
2026-05-08 08:20 pmSSW 11.7 15.5 1.0-- SW29.76- 53.4 52.7 49.6---
2026-05-08 08:10 pmSSW 11.7 15.5 1.0-- SW29.76- 53.4 52.7 49.5---
2026-05-08 08:00 pmSSW 11.7 13.6 1.0 2-WSW29.76-0.01 53.2 52.7 49.5---
2026-05-08 07:50 pmSSW 9.7 13.6 1.0 2-WSW29.77- 53.2 52.9 49.5---
2026-05-08 07:30 pm SW 11.7 15.5 1.0-- SW29.76- 53.6 52.9 49.3---
2026-05-08 07:20 pm SW 13.6 17.5 1.0-- SW29.76- 53.6 53.1 49.3---
2026-05-08 07:10 pm SW 13.6 17.5 1.0-- SW29.77- 53.8 53.2 48.9---
2026-05-08 07:00 pmSSW 13.6 17.5 0.7-- SW29.76-0.04 54.5 53.4 48.6---
2026-05-08 06:50 pmSSW 9.7 13.6 0.3--SSW29.76- 54.9 53.6 48.9---
2026-05-08 06:40 pmSSW 7.8 9.7 0.3-- W29.76- 55.0 53.8 48.9---
2026-05-08 06:30 pm SW 5.8 9.7 0.3-- W29.76- 54.9 54.0 48.7---
2026-05-08 06:20 pm S 1.9 3.9 0.3-- NW29.77- 53.8 54.0 48.2---
2026-05-08 06:10 pmESE 3.9 7.8 0.3--WNW29.77- 53.4 53.8 48.0---
2026-05-08 06:00 pm E 3.9 5.8 0.3--WNW29.77-0.05 53.4 54.0 47.7---
2026-05-08 05:50 pm E 3.9 5.8 0.3-- W29.76- 53.1 54.0 47.1---
2026-05-08 05:40 pm E 3.9 5.8 0.3-- W29.77- 53.1 54.1 46.8---
2026-05-08 05:30 pm E 3.9 5.8 0.7--WNW29.77- 52.9 54.1 46.4---
2026-05-08 05:20 pm E 3.9 5.8 0.7-- W29.77- 52.9 54.3 46.2---
2026-05-08 05:10 pm E 3.9 3.9 0.7-- W29.78- 52.9 54.1 46.0---
2026-05-08 05:00 pm E 3.9 3.9 0.7-- W29.78-0.06 52.9 54.1 45.7---
2026-05-08 04:50 pm E 1.9 1.9 0.7-- W29.78- 52.9 54.0 45.9---
2026-05-08 04:40 pm E 1.9 3.9 0.7-- W29.78- 52.9 53.8 45.7---
2026-05-08 04:30 pmENE 1.9 3.9 0.7-- W29.79- 52.9 53.8 45.3---
2026-05-08 04:20 pmNNE 1.9 3.9 0.7-- W29.80- 52.7 53.8 45.5---
2026-05-08 04:10 pmNNE 1.9 3.9 0.7-- W29.80- 53.4 54.0 45.7---
2026-05-08 04:00 pmNNE 3.9 3.9 0.7-- W29.80-0.05 53.6 53.8 46.0---
2026-05-08 03:50 pmNNE 3.9 5.8 0.7-- W29.80- 52.5 53.8 45.5---
2026-05-08 03:40 pmNNE 3.9 5.8 0.7-- W29.80- 52.3 53.8 45.5---
2026-05-08 03:30 pmNNE 3.9 5.8 1.0 3- W29.80- 52.5 53.8 45.5---
2026-05-08 03:20 pm NE 3.9 5.8 1.0 4- W29.80- 52.9 53.6 45.9---
2026-05-08 03:10 pm NE 3.9 3.9 1.0 3- W29.81- 52.7 53.6 45.5---
2026-05-08 03:00 pm NE 3.9 3.9 1.0 3- W29.81-0.04 53.1 53.4 46.0---
2026-05-08 02:50 pmNNE 3.9 3.9 1.0 4- W29.81- 52.9 53.4 45.9---
2026-05-08 02:40 pmNNE 1.9 3.9 1.0 4- W29.81- 52.0 52.9 45.5---
2026-05-08 02:30 pmENE 3.9 3.9 1.0 4- W29.82- 52.2 52.9 45.3---
2026-05-08 02:20 pmNNE 3.9 5.8 1.0 4- W29.82- 52.2 52.7 45.5---
2026-05-08 02:10 pmNNE 1.9 3.9 1.0 3- W29.83- 51.8 52.5 45.3---
2026-05-08 02:00 pmNNE 1.9 3.9 1.3 4- W29.84-0.02 52.2 52.5 45.5---
2026-05-08 01:50 pm N 3.9 5.8 1.0 3- W29.84- 52.2 52.5 45.9---
2026-05-08 01:40 pm N 3.9 5.8 1.3 4- W29.84- 52.0 52.5 45.5---
2026-05-08 01:30 pm N 3.9 5.8 1.3 4- W29.84- 52.0 52.3 45.7---
2026-05-08 01:20 pm N 5.8 5.8 1.3 4- W29.85- 51.6 52.3 45.9---
2026-05-08 01:10 pm N 5.8 7.8 1.3 3- W29.85- 51.4 52.3 45.9---
2026-05-08 01:00 pm N 5.8 9.7 1.3 4- W29.85-0.01 51.4 52.2 46.0---
2026-05-08 12:50 pmNNW 7.8 9.7 1.3 4- W29.85- 51.4 52.2 45.7---
2026-05-08 12:40 pmNNW 7.8 9.7 1.3 4- W29.85- 51.4 52.2 45.7---
2026-05-08 12:30 pm NW 7.8 9.7 1.3 4- W29.85- 51.4 52.2 45.5---
2026-05-08 12:20 pm NW 7.8 9.7 1.6 4- W29.85- 51.4 52.2 45.3---
2026-05-08 12:10 pmNNW 7.8 9.7 1.6 4- W29.85- 51.4 52.2 45.5---
2026-05-08 12:00 pm NW 9.7 11.7 1.6 4- W29.85-0.01 51.4 52.2 45.7---
2026-05-08 11:50 am NW 9.7 11.7 1.6 4- W29.85- 51.4 52.2 45.5---
2026-05-08 11:40 am NW 9.7 11.7 1.6 4- W29.85- 51.4 52.0 45.7---
2026-05-08 11:30 am NW 9.7 11.7 1.6 4- W29.86- 51.6 52.0 45.5---
2026-05-08 11:20 amWNW 7.8 11.7 1.6 4- W29.86- 51.8 52.0 45.5---
2026-05-08 11:10 amWNW 7.8 9.7 1.6 4- W29.86- 51.8 52.0 45.3---
2026-05-08 11:00 amWNW 7.8 11.7 1.6 4- W29.86+0.01 51.8 52.0 45.0---
2026-05-08 10:50 am W 7.8 9.7 1.6 4- W29.85- 51.6 52.0 44.8---
2026-05-08 10:40 am W 5.8 7.8 1.6 4- W29.85- 51.3 52.0 45.0---
2026-05-08 10:30 amWSW 5.8 5.8 1.6 4- W29.86- 51.1 51.8 44.6---
2026-05-08 10:20 am W 5.8 7.8 1.6 4- W29.86- 50.7 51.8 44.4---
2026-05-08 10:10 amWSW 7.8 9.7 1.6 4- W29.85- 50.5 51.8 44.2---
2026-05-08 10:00 am W 7.8 11.7 1.6 4- W29.86+0.02 50.4 51.8 44.1---
2026-05-08 09:50 amWSW 7.8 11.7 1.6 4- W29.86- 50.4 51.8 44.1---
2026-05-08 09:40 amWSW 9.7 13.6 1.6 4- W29.86- 50.2 51.8 44.1---
2026-05-08 09:30 amWSW 9.7 13.6 1.6 4- W29.86- 50.7 52.0 44.1---
2026-05-08 09:20 amWSW 9.7 11.7 1.6 4- W29.86- 50.5 52.0 43.9---
2026-05-08 09:10 amWSW 7.8 11.7 1.6 4- W29.86- 50.7 52.0 43.7---
2026-05-08 09:00 amWSW 11.7 15.5 1.6 4- W29.86+0.03 50.9 52.0 43.7---
2026-05-08 08:50 am W 9.7 15.5 1.6 4- W29.86- 51.3 52.0 44.6---
2026-05-08 08:40 am W 7.8 9.7 1.6 4-WNW29.86- 51.1 52.0 44.8---
2026-05-08 08:30 amWNW 5.8 9.7 1.6 4- W29.86- 50.9 52.0 44.4---
2026-05-08 08:20 am W 5.8 9.7 1.6 4- W29.85- 50.7 52.0 44.6---
2026-05-08 08:10 am W 7.8 11.7 1.6 4- W29.85- 50.7 52.0 44.1---
2026-05-08 08:00 am W 5.8 7.8 1.6 4- W29.85+0.01 50.4 52.0 43.3---
2026-05-08 07:50 amWSW 5.8 7.8 1.6 4- W29.85- 50.2 52.2 43.0---
2026-05-08 07:40 am W 5.8 7.8 1.6 4- W29.85- 50.2 52.2 43.2---
2026-05-08 07:30 am W 5.8 7.8 1.6 4- W29.84- 49.8 52.2 42.8---
2026-05-08 07:20 am W 5.8 7.8 2.0 4- W29.84- 50.0 52.2 42.8---
2026-05-08 07:10 am W 3.9 7.8 2.0 4- W29.84- 49.8 52.3 42.3---
2026-05-08 07:00 amWSW 3.9 7.8 2.0 4- W29.84+0.00 49.6 52.5 42.6---
2026-05-08 06:50 am SW 5.8 7.8 2.0 4- W29.84- 49.6 52.5 42.4---
2026-05-08 06:10 am SW 9.7 13.6 2.0 4- W29.83- 49.8 52.7 42.8---
2026-05-08 06:00 am SW 9.7 13.6 2.3 4- W29.83-0.01 50.0 52.7 42.8---
2026-05-08 05:40 amWSW 11.7 13.6 2.0 4- W29.83- 50.0 52.7 42.8---
2026-05-08 05:30 amWSW 11.7 15.5 2.3 4- W29.83- 50.2 52.7 42.8---
2026-05-08 05:20 amWSW 11.7 15.5 2.0 4-WNW29.83- 50.2 52.7 42.6---
2026-05-08 05:10 am SW 13.6 17.5 2.0 4-WNW29.84- 50.4 52.9 42.8---
2026-05-08 05:00 amWSW 13.6 19.4 2.0 4- W29.84-0.01 50.2 52.7 42.6---
2026-05-08 04:50 am SW 13.6 17.5 2.0 4- W29.83- 50.4 52.7 42.6---
2026-05-08 04:30 amWSW 13.6 17.5 2.3 4- W29.84- 50.9 52.9 42.8---
2026-05-08 04:20 am SW 13.6 19.4 2.0 4- W29.84- 51.1 52.7 43.0---
2026-05-08 04:10 amWSW 13.6 17.5 2.3 3- W29.84- 51.1 52.7 42.6---
2026-05-08 04:00 amWSW 15.5 19.4 2.3 4- W29.84-0.02 51.1 52.7 42.6---

Wave Summary
for 45176 as of (4:30 am EDT)
0830 GMT on 05/09/2026:

These wave data are displayed in rounded times.

     

Click on the graph icon in the table below to see a time series plot of the last five days of that observation.

5-day plot - Significant Wave Height Significant Wave Height (WVHT): 1.3 ft
Previous observations
TIME
(EDT)
5-day plot - Wave Height
WVHT
ft
5-day plot - Swell Height
SwH
ft
5-day plot - Swell Period
SwP
sec
5-day plot - Swell Direction
SwD
 
5-day plot - Wind Wave Height
WWH
ft
5-day plot - Wind Wave Period
WWP
sec
5-day plot - Wind Wave Direction
WWD
 
5-day plot - Wave Steepness
STEEPNESS
 
5-day plot - Average Wave Period
APD
sec
2026-05-09 04:20 am 1.3------ N/A-
2026-05-09 04:10 am 1.3------ N/A-
2026-05-09 04:00 am 1.3------ N/A-
2026-05-09 03:50 am 1.3------ N/A-
2026-05-09 03:40 am 1.3------ N/A-
2026-05-09 03:30 am 1.3------ N/A-
2026-05-09 03:20 am 1.3------ N/A-
2026-05-09 03:10 am 1.3------ N/A-
2026-05-09 03:00 am 1.3------ N/A-
2026-05-09 02:50 am 1.3------ N/A-
2026-05-09 02:40 am 1.3------ N/A-
2026-05-09 02:30 am 1.3------ N/A-
2026-05-09 02:20 am 1.3------ N/A-
2026-05-09 02:10 am 1.6------ N/A-
2026-05-09 02:00 am 1.3------ N/A-
2026-05-09 01:50 am 1.3------ N/A-
2026-05-09 01:40 am 1.3------ N/A-
2026-05-09 01:20 am 1.3------ N/A-
2026-05-09 01:10 am 1.3------ N/A-
2026-05-09 12:50 am 1.3------ N/A-
2026-05-09 12:40 am 1.3------ N/A-
2026-05-09 12:30 am 1.3------ N/A-
2026-05-09 12:20 am 1.3------ N/A-
2026-05-09 12:00 am 1.3------ N/A-
2026-05-08 11:50 pm 1.3------ N/A-
2026-05-08 11:40 pm 1.3------ N/A-
2026-05-08 11:20 pm 1.3------ N/A-
2026-05-08 11:10 pm 1.3------ N/A-
2026-05-08 11:00 pm 1.3------ N/A-
2026-05-08 10:50 pm 1.3------ N/A-
2026-05-08 10:40 pm 1.3------ N/A-
2026-05-08 10:30 pm 1.0------ N/A-
2026-05-08 10:20 pm 1.0------ N/A-
2026-05-08 10:10 pm 1.3------ N/A-
2026-05-08 10:00 pm 1.3------ N/A-
2026-05-08 09:50 pm 1.3------ N/A-
2026-05-08 09:40 pm 1.3------ N/A-
2026-05-08 09:30 pm 1.3------ N/A-
2026-05-08 09:20 pm 1.3------ N/A-
2026-05-08 09:10 pm 1.3------ N/A-
2026-05-08 09:00 pm 1.3------ N/A-
2026-05-08 08:50 pm 1.0------ N/A-
2026-05-08 08:40 pm 1.0------ N/A-
2026-05-08 08:30 pm 1.0------ N/A-
2026-05-08 08:20 pm 1.0------ N/A-
2026-05-08 08:10 pm 1.0------ N/A-
2026-05-08 08:00 pm 1.0------ N/A-
2026-05-08 07:50 pm 1.0------ N/A-
2026-05-08 07:30 pm 1.0------ N/A-
2026-05-08 07:20 pm 1.0------ N/A-
2026-05-08 07:10 pm 1.0------ N/A-
2026-05-08 07:00 pm 0.7------ N/A-
2026-05-08 06:50 pm 0.3------ N/A-
2026-05-08 06:40 pm 0.3------ N/A-
2026-05-08 06:30 pm 0.3------ N/A-
2026-05-08 06:20 pm 0.3------ N/A-
2026-05-08 06:10 pm 0.3------ N/A-
2026-05-08 06:00 pm 0.3------ N/A-
2026-05-08 05:50 pm 0.3------ N/A-
2026-05-08 05:40 pm 0.3------ N/A-
2026-05-08 05:30 pm 0.7------ N/A-
2026-05-08 05:20 pm 0.7------ N/A-
2026-05-08 05:10 pm 0.7------ N/A-
2026-05-08 05:00 pm 0.7------ N/A-
2026-05-08 04:50 pm 0.7------ N/A-
2026-05-08 04:40 pm 0.7------ N/A-
2026-05-08 04:30 pm 0.7------ N/A-
2026-05-08 04:20 pm 0.7------ N/A-
2026-05-08 04:10 pm 0.7------ N/A-
2026-05-08 04:00 pm 0.7------ N/A-
2026-05-08 03:50 pm 0.7------ N/A-
2026-05-08 03:40 pm 0.7------ N/A-
2026-05-08 03:30 pm 1.0------ N/A-
2026-05-08 03:20 pm 1.0------ N/A-
2026-05-08 03:10 pm 1.0------ N/A-
2026-05-08 03:00 pm 1.0------ N/A-
2026-05-08 02:50 pm 1.0------ N/A-
2026-05-08 02:40 pm 1.0------ N/A-
2026-05-08 02:30 pm 1.0------ N/A-
2026-05-08 02:20 pm 1.0------ N/A-
2026-05-08 02:10 pm 1.0------ N/A-
2026-05-08 02:00 pm 1.3------ N/A-
2026-05-08 01:50 pm 1.0------ N/A-
2026-05-08 01:40 pm 1.3------ N/A-
2026-05-08 01:30 pm 1.3------ N/A-
2026-05-08 01:20 pm 1.3------ N/A-
2026-05-08 01:10 pm 1.3------ N/A-
2026-05-08 01:00 pm 1.3------ N/A-
2026-05-08 12:50 pm 1.3------ N/A-
2026-05-08 12:40 pm 1.3------ N/A-
2026-05-08 12:30 pm 1.3------ N/A-
2026-05-08 12:20 pm 1.6------ N/A-
2026-05-08 12:10 pm 1.6------ N/A-
2026-05-08 12:00 pm 1.6------ N/A-
2026-05-08 11:50 am 1.6------ N/A-
2026-05-08 11:40 am 1.6------ N/A-
2026-05-08 11:30 am 1.6------ N/A-
2026-05-08 11:20 am 1.6------ N/A-
2026-05-08 11:10 am 1.6------ N/A-
2026-05-08 11:00 am 1.6------ N/A-
2026-05-08 10:50 am 1.6------ N/A-
2026-05-08 10:40 am 1.6------ N/A-
2026-05-08 10:30 am 1.6------ N/A-
2026-05-08 10:20 am 1.6------ N/A-
2026-05-08 10:10 am 1.6------ N/A-
2026-05-08 10:00 am 1.6------ N/A-
2026-05-08 09:50 am 1.6------ N/A-
2026-05-08 09:40 am 1.6------ N/A-
2026-05-08 09:30 am 1.6------ N/A-
2026-05-08 09:20 am 1.6------ N/A-
2026-05-08 09:10 am 1.6------ N/A-
2026-05-08 09:00 am 1.6------ N/A-
2026-05-08 08:50 am 1.6------ N/A-
2026-05-08 08:40 am 1.6------ N/A-
2026-05-08 08:30 am 1.6------ N/A-
2026-05-08 08:20 am 1.6------ N/A-
2026-05-08 08:10 am 1.6------ N/A-
2026-05-08 08:00 am 1.6------ N/A-
2026-05-08 07:50 am 1.6------ N/A-
2026-05-08 07:40 am 1.6------ N/A-
2026-05-08 07:30 am 1.6------ N/A-
2026-05-08 07:20 am 2.0------ N/A-
2026-05-08 07:10 am 2.0------ N/A-
2026-05-08 07:00 am 2.0------ N/A-
2026-05-08 06:50 am 2.0------ N/A-
2026-05-08 06:10 am 2.0------ N/A-
2026-05-08 06:00 am 2.3------ N/A-
2026-05-08 05:40 am 2.0------ N/A-
2026-05-08 05:30 am 2.3------ N/A-
2026-05-08 05:20 am 2.0------ N/A-
2026-05-08 05:10 am 2.0------ N/A-
2026-05-08 05:00 am 2.0------ N/A-
2026-05-08 04:50 am 2.0------ N/A-
2026-05-08 04:30 am 2.3------ N/A-
2026-05-08 04:20 am 2.0------ N/A-
2026-05-08 04:10 am 2.3------ N/A-
2026-05-08 04:00 am 2.3------ N/A-

Ocean Conditions at 45176 as of
(4:30 am EDT)
0830 GMT on 05/09/2026:

These oceanographic data are displayed in rounded times.

     

Click on the graph icon in the table below to see a time series plot of the last five days of that observation.

Depth (DEPTH): 4.9 ft
5-day plot - Ocean Temperature Ocean Temperature (OTMP):51.73 °F
Previous observations
TIME
(EDT)
DEPTH
ft
5-day plot - Ocean Temperature
OTMP
°F
5-day plot - Conductivity
COND
mS/cm
5-day plot - Salinity
SAL
psu
5-day plot - Oxygen Saturation
O2%
%
5-day plot - Oxygen Concentration
O2PPM
ppm
5-day plot - Chlorophyll
CLCON
ug/l
5-day plot - Turbidity
TURB
FTU
5-day plot - pH
PH
 
5-day plot - Eh
EH
mV
2026-05-09 04:20 am 4.951.73--------
2026-05-09 04:10 am 4.951.73--------
2026-05-09 04:00 am 4.951.71--------
2026-05-09 03:50 am 4.951.71--------
2026-05-09 03:40 am 4.951.73--------
2026-05-09 03:30 am 4.951.75--------
2026-05-09 03:20 am 4.951.75--------
2026-05-09 03:10 am 4.951.76--------
2026-05-09 03:00 am 4.951.78--------
2026-05-09 02:50 am 4.951.78--------
2026-05-09 02:40 am 4.951.82--------
2026-05-09 02:30 am 4.951.84--------
2026-05-09 02:20 am 4.951.84--------
2026-05-09 02:10 am 4.951.85--------
2026-05-09 02:00 am 4.951.87--------
2026-05-09 01:50 am 4.951.84--------
2026-05-09 01:40 am 4.951.87--------
2026-05-09 01:20 am 4.951.89--------
2026-05-09 01:10 am 4.951.89--------
2026-05-09 12:50 am 4.951.85--------
2026-05-09 12:40 am 4.951.85--------
2026-05-09 12:30 am 4.951.85--------
2026-05-09 12:20 am 4.951.80--------
2026-05-09 12:00 am 4.951.82--------
2026-05-08 11:50 pm 4.951.84--------
2026-05-08 11:40 pm 4.951.84--------
2026-05-08 11:20 pm 4.951.84--------
2026-05-08 11:10 pm 4.951.85--------
2026-05-08 11:00 pm 4.951.87--------
2026-05-08 10:50 pm 4.951.87--------
2026-05-08 10:40 pm 4.951.89--------
2026-05-08 10:30 pm 4.951.91--------
2026-05-08 10:20 pm 4.951.89--------
2026-05-08 10:10 pm 4.951.89--------
2026-05-08 10:00 pm 4.951.89--------
2026-05-08 09:50 pm 4.951.89--------
2026-05-08 09:40 pm 4.951.89--------
2026-05-08 09:30 pm 4.951.94--------
2026-05-08 09:20 pm 4.951.96--------
2026-05-08 09:10 pm 4.952.02--------
2026-05-08 09:00 pm 4.952.03--------
2026-05-08 08:50 pm 4.952.16--------
2026-05-08 08:40 pm 4.952.18--------
2026-05-08 08:30 pm 4.952.54--------
2026-05-08 08:20 pm 4.952.59--------
2026-05-08 08:10 pm 4.952.59--------
2026-05-08 08:00 pm 4.952.48--------
2026-05-08 07:50 pm 4.952.63--------
2026-05-08 07:30 pm 4.952.61--------
2026-05-08 07:20 pm 4.952.59--------
2026-05-08 07:10 pm 4.952.77--------
2026-05-08 07:00 pm 4.953.13--------
2026-05-08 06:50 pm 4.953.06--------
2026-05-08 06:40 pm 4.953.28--------
2026-05-08 06:30 pm 4.953.06--------
2026-05-08 06:20 pm 4.953.06--------
2026-05-08 06:10 pm 4.953.22--------
2026-05-08 06:00 pm 4.953.10--------
2026-05-08 05:50 pm 4.953.02--------
2026-05-08 05:40 pm 4.952.50--------
2026-05-08 05:30 pm 4.952.75--------
2026-05-08 05:20 pm 4.952.47--------
2026-05-08 05:10 pm 4.952.88--------
2026-05-08 05:00 pm 4.952.29--------
2026-05-08 04:50 pm 4.952.25--------
2026-05-08 04:40 pm 4.952.21--------
2026-05-08 04:30 pm 4.952.29--------
2026-05-08 04:20 pm 4.952.25--------
2026-05-08 04:10 pm 4.952.21--------
2026-05-08 04:00 pm 4.952.43--------
2026-05-08 03:50 pm 4.952.27--------
2026-05-08 03:40 pm 4.952.32--------
2026-05-08 03:30 pm 4.952.38--------
2026-05-08 03:20 pm 4.952.38--------
2026-05-08 03:10 pm 4.952.38--------
2026-05-08 03:00 pm 4.952.39--------
2026-05-08 02:50 pm 4.952.36--------
2026-05-08 02:40 pm 4.952.29--------
2026-05-08 02:30 pm 4.952.16--------
2026-05-08 02:20 pm 4.952.12--------
2026-05-08 02:10 pm 4.952.12--------
2026-05-08 02:00 pm 4.952.14--------
2026-05-08 01:50 pm 4.952.14--------
2026-05-08 01:40 pm 4.952.16--------
2026-05-08 01:30 pm 4.952.09--------
2026-05-08 01:20 pm 4.952.09--------
2026-05-08 01:10 pm 4.952.05--------
2026-05-08 01:00 pm 4.952.12--------
2026-05-08 12:50 pm 4.952.05--------
2026-05-08 12:40 pm 4.952.07--------
2026-05-08 12:30 pm 4.952.09--------
2026-05-08 12:20 pm 4.951.96--------
2026-05-08 12:10 pm 4.951.93--------
2026-05-08 12:00 pm 4.951.91--------
2026-05-08 11:50 am 4.951.91--------
2026-05-08 11:40 am 4.951.93--------
2026-05-08 11:30 am 4.951.84--------
2026-05-08 11:20 am 4.951.75--------
2026-05-08 11:10 am 4.951.91--------
2026-05-08 11:00 am 4.951.85--------
2026-05-08 10:50 am 4.951.75--------
2026-05-08 10:40 am 4.951.71--------
2026-05-08 10:30 am 4.951.73--------
2026-05-08 10:20 am 4.951.67--------
2026-05-08 10:10 am 4.951.69--------
2026-05-08 10:00 am 4.951.67--------
2026-05-08 09:50 am 4.951.69--------
2026-05-08 09:40 am 4.951.71--------
2026-05-08 09:30 am 4.951.73--------
2026-05-08 09:20 am 4.951.75--------
2026-05-08 09:10 am 4.951.76--------
2026-05-08 09:00 am 4.951.78--------
2026-05-08 08:50 am 4.951.80--------
2026-05-08 08:40 am 4.951.82--------
2026-05-08 08:30 am 4.951.85--------
2026-05-08 08:20 am 4.951.85--------
2026-05-08 08:10 am 4.951.87--------
2026-05-08 08:00 am 4.951.87--------
2026-05-08 07:50 am 4.951.85--------
2026-05-08 07:40 am 4.951.93--------
2026-05-08 07:30 am 4.951.94--------
2026-05-08 07:20 am 4.951.94--------
2026-05-08 07:10 am 4.951.96--------
2026-05-08 07:00 am 4.952.18--------
2026-05-08 06:50 am 4.952.34--------
2026-05-08 06:10 am 4.952.57--------
2026-05-08 06:00 am 4.952.61--------
2026-05-08 05:40 am 4.952.61--------
2026-05-08 05:30 am 4.952.61--------
2026-05-08 05:20 am 4.952.61--------
2026-05-08 05:10 am 4.952.61--------
2026-05-08 05:00 am 4.952.65--------
2026-05-08 04:50 am 4.952.65--------
2026-05-08 04:30 am 4.952.63--------
2026-05-08 04:20 am 4.952.65--------
2026-05-08 04:10 am 4.952.59--------
2026-05-08 04:00 am 4.952.59--------